sensor_id;sensor_type;location;lat;lon;timestamp;pressure;altitude;pressure_sealevel;temperature;humidity
74552;BME280;63025;55.472;38.432;2023-11-22T00:01:10;100175.34;;;-7.92;100.00
74552;BME280;63025;55.472;38.432;2023-11-22T00:03:37;100168.34;;;-7.92;100.00
74552;BME280;63025;55.472;38.432;2023-11-22T00:06:03;100160.63;;;-7.93;100.00
74552;BME280;63025;55.472;38.432;2023-11-22T00:08:29;100172.56;;;-7.89;100.00
74552;BME280;63025;55.472;38.432;2023-11-22T00:10:55;100170.59;;;-7.86;100.00
74552;BME280;63025;55.472;38.432;2023-11-22T00:13:21;100165.13;;;-7.81;100.00
74552;BME280;63025;55.472;38.432;2023-11-22T00:15:47;100165.94;;;-7.81;100.00
74552;BME280;63025;55.472;38.432;2023-11-22T00:18:12;100163.34;;;-7.81;100.00
74552;BME280;63025;55.472;38.432;2023-11-22T00:20:38;100159.91;;;-7.81;100.00
74552;BME280;63025;55.472;38.432;2023-11-22T00:23:05;100159.81;;;-7.80;100.00
74552;BME280;63025;55.472;38.432;2023-11-22T00:25:31;100158.75;;;-7.91;100.00
74552;BME280;63025;55.472;38.432;2023-11-22T00:27:58;100157.63;;;-7.87;100.00
74552;BME280;63025;55.472;38.432;2023-11-22T00:30:24;100157.91;;;-7.92;100.00
74552;BME280;63025;55.472;38.432;2023-11-22T00:32:52;100152.41;;;-7.87;100.00
74552;BME280;63025;55.472;38.432;2023-11-22T00:35:18;100132.31;;;-7.99;100.00
74552;BME280;63025;55.472;38.432;2023-11-22T00:37:44;100151.19;;;-7.96;100.00
74552;BME280;63025;55.472;38.432;2023-11-22T00:40:10;100147.75;;;-7.96;100.00
74552;BME280;63025;55.472;38.432;2023-11-22T00:42:38;100154.72;;;-7.97;100.00
74552;BME280;63025;55.472;38.432;2023-11-22T00:45:06;100149.13;;;-8.05;100.00
74552;BME280;63025;55.472;38.432;2023-11-22T00:47:33;100150.72;;;-8.02;100.00
74552;BME280;63025;55.472;38.432;2023-11-22T00:50:00;100165.59;;;-8.04;100.00
74552;BME280;63025;55.472;38.432;2023-11-22T00:52:30;100163.09;;;-8.06;100.00
74552;BME280;63025;55.472;38.432;2023-11-22T00:54:56;100155.19;;;-8.04;100.00
74552;BME280;63025;55.472;38.432;2023-11-22T00:57:23;100164.00;;;-8.07;100.00
74552;BME280;63025;55.472;38.432;2023-11-22T00:59:49;100156.47;;;-8.11;100.00
74552;BME280;63025;55.472;38.432;2023-11-22T01:02:16;100175.81;;;-8.16;100.00
74552;BME280;63025;55.472;38.432;2023-11-22T01:04:42;100175.13;;;-8.19;100.00
74552;BME280;63025;55.472;38.432;2023-11-22T01:07:08;100161.47;;;-8.23;100.00
74552;BME280;63025;55.472;38.432;2023-11-22T01:09:34;100166.28;;;-8.31;100.00
74552;BME280;63025;55.472;38.432;2023-11-22T01:12:00;100161.72;;;-8.27;100.00
74552;BME280;63025;55.472;38.432;2023-11-22T01:14:26;100163.31;;;-8.25;100.00
74552;BME280;63025;55.472;38.432;2023-11-22T01:16:52;100161.72;;;-8.27;100.00
74552;BME280;63025;55.472;38.432;2023-11-22T01:19:20;100161.06;;;-8.31;100.00
74552;BME280;63025;55.472;38.432;2023-11-22T01:21:47;100166.00;;;-8.26;100.00
74552;BME280;63025;55.472;38.432;2023-11-22T01:24:13;100172.22;;;-8.29;100.00
74552;BME280;63025;55.472;38.432;2023-11-22T01:26:39;100165.56;;;-8.33;100.00
74552;BME280;63025;55.472;38.432;2023-11-22T01:29:05;100167.47;;;-8.36;100.00
74552;BME280;63025;55.472;38.432;2023-11-22T01:31:31;100170.78;;;-8.33;100.00
74552;BME280;63025;55.472;38.432;2023-11-22T01:33:59;100171.00;;;-8.37;100.00
74552;BME280;63025;55.472;38.432;2023-11-22T01:36:26;100178.75;;;-8.36;100.00
74552;BME280;63025;55.472;38.432;2023-11-22T01:38:54;100173.38;;;-8.33;100.00
74552;BME280;63025;55.472;38.432;2023-11-22T01:41:22;100169.84;;;-8.32;100.00
74552;BME280;63025;55.472;38.432;2023-11-22T01:43:48;100175.34;;;-8.22;100.00
74552;BME280;63025;55.472;38.432;2023-11-22T01:46:23;100168.16;;;-8.19;100.00
74552;BME280;63025;55.472;38.432;2023-11-22T01:48:50;100172.44;;;-8.18;100.00
74552;BME280;63025;55.472;38.432;2023-11-22T01:51:21;100172.38;;;-8.16;100.00
74552;BME280;63025;55.472;38.432;2023-11-22T01:53:49;100166.97;;;-8.13;100.00
74552;BME280;63025;55.472;38.432;2023-11-22T01:56:16;100162.69;;;-8.14;100.00
74552;BME280;63025;55.472;38.432;2023-11-22T01:58:43;100169.50;;;-8.11;100.00
74552;BME280;63025;55.472;38.432;2023-11-22T02:01:10;100170.22;;;-8.09;100.00
74552;BME280;63025;55.472;38.432;2023-11-22T02:03:38;100175.19;;;-8.05;100.00
74552;BME280;63025;55.472;38.432;2023-11-22T02:06:06;100176.97;;;-8.05;100.00
74552;BME280;63025;55.472;38.432;2023-11-22T02:08:33;100176.88;;;-8.04;100.00
74552;BME280;63025;55.472;38.432;2023-11-22T02:11:00;100174.19;;;-8.02;100.00
74552;BME280;63025;55.472;38.432;2023-11-22T02:13:31;100179.22;;;-7.99;100.00
74552;BME280;63025;55.472;38.432;2023-11-22T02:15:57;100171.41;;;-7.99;100.00
74552;BME280;63025;55.472;38.432;2023-11-22T02:18:28;100176.25;;;-7.93;100.00
74552;BME280;63025;55.472;38.432;2023-11-22T02:20:56;100178.09;;;-7.95;100.00
74552;BME280;63025;55.472;38.432;2023-11-22T02:23:22;100169.72;;;-8.00;100.00
74552;BME280;63025;55.472;38.432;2023-11-22T02:25:50;100176.22;;;-8.07;100.00
74552;BME280;63025;55.472;38.432;2023-11-22T02:28:16;100180.16;;;-8.00;100.00
74552;BME280;63025;55.472;38.432;2023-11-22T02:30:42;100178.28;;;-7.98;100.00
74552;BME280;63025;55.472;38.432;2023-11-22T02:33:08;100167.84;;;-7.98;100.00
74552;BME280;63025;55.472;38.432;2023-11-22T02:35:34;100171.97;;;-7.94;100.00
74552;BME280;63025;55.472;38.432;2023-11-22T02:38:00;100157.16;;;-7.94;100.00
74552;BME280;63025;55.472;38.432;2023-11-22T02:40:27;100169.00;;;-7.88;100.00
74552;BME280;63025;55.472;38.432;2023-11-22T02:42:54;100165.66;;;-7.90;100.00
74552;BME280;63025;55.472;38.432;2023-11-22T02:45:28;100169.19;;;-7.91;100.00
74552;BME280;63025;55.472;38.432;2023-11-22T02:47:55;100175.81;;;-7.86;100.00
74552;BME280;63025;55.472;38.432;2023-11-22T02:50:21;100181.94;;;-7.87;100.00
74552;BME280;63025;55.472;38.432;2023-11-22T02:52:47;100180.94;;;-7.84;100.00
74552;BME280;63025;55.472;38.432;2023-11-22T02:55:13;100186.72;;;-7.79;100.00
74552;BME280;63025;55.472;38.432;2023-11-22T02:57:41;100190.28;;;-7.80;100.00
74552;BME280;63025;55.472;38.432;2023-11-22T03:00:08;100180.69;;;-7.80;100.00
74552;BME280;63025;55.472;38.432;2023-11-22T03:02:34;100180.75;;;-7.81;100.00
74552;BME280;63025;55.472;38.432;2023-11-22T03:05:01;100179.84;;;-7.80;100.00
74552;BME280;63025;55.472;38.432;2023-11-22T03:07:30;100182.34;;;-7.79;100.00
74552;BME280;63025;55.472;38.432;2023-11-22T03:09:57;100188.38;;;-7.78;100.00
74552;BME280;63025;55.472;38.432;2023-11-22T03:12:26;100186.28;;;-7.71;100.00
74552;BME280;63025;55.472;38.432;2023-11-22T03:14:52;100176.69;;;-7.71;100.00
74552;BME280;63025;55.472;38.432;2023-11-22T03:17:26;100191.50;;;-7.71;100.00
74552;BME280;63025;55.472;38.432;2023-11-22T03:19:54;100181.81;;;-7.69;100.00
74552;BME280;63025;55.472;38.432;2023-11-22T03:22:24;100182.81;;;-7.72;100.00
74552;BME280;63025;55.472;38.432;2023-11-22T03:24:50;100172.94;;;-7.67;100.00
74552;BME280;63025;55.472;38.432;2023-11-22T03:27:17;100182.44;;;-7.66;100.00
74552;BME280;63025;55.472;38.432;2023-11-22T03:29:45;100188.25;;;-7.61;100.00
74552;BME280;63025;55.472;38.432;2023-11-22T03:32:12;100182.00;;;-7.58;100.00
74552;BME280;63025;55.472;38.432;2023-11-22T03:34:39;100177.44;;;-7.55;100.00
74552;BME280;63025;55.472;38.432;2023-11-22T03:37:05;100174.66;;;-7.52;100.00
74552;BME280;63025;55.472;38.432;2023-11-22T03:39:31;100177.72;;;-7.45;100.00
74552;BME280;63025;55.472;38.432;2023-11-22T03:41:57;100175.31;;;-7.48;100.00
74552;BME280;63025;55.472;38.432;2023-11-22T03:44:23;100174.56;;;-7.50;100.00
74552;BME280;63025;55.472;38.432;2023-11-22T03:46:49;100183.78;;;-7.45;100.00
74552;BME280;63025;55.472;38.432;2023-11-22T03:49:15;100173.53;;;-7.48;100.00
74552;BME280;63025;55.472;38.432;2023-11-22T03:51:43;100169.72;;;-7.42;100.00
74552;BME280;63025;55.472;38.432;2023-11-22T03:54:09;100187.06;;;-7.41;100.00
74552;BME280;63025;55.472;38.432;2023-11-22T03:56:36;100180.81;;;-7.38;100.00
74552;BME280;63025;55.472;38.432;2023-11-22T03:59:02;100189.75;;;-7.43;100.00
74552;BME280;63025;55.472;38.432;2023-11-22T04:01:29;100179.41;;;-7.44;100.00
74552;BME280;63025;55.472;38.432;2023-11-22T04:03:56;100180.06;;;-7.41;100.00
74552;BME280;63025;55.472;38.432;2023-11-22T04:06:22;100180.25;;;-7.44;100.00
74552;BME280;63025;55.472;38.432;2023-11-22T04:08:49;100183.59;;;-7.42;100.00
74552;BME280;63025;55.472;38.432;2023-11-22T04:11:15;100186.03;;;-7.38;100.00
74552;BME280;63025;55.472;38.432;2023-11-22T04:13:44;100188.25;;;-7.32;100.00
74552;BME280;63025;55.472;38.432;2023-11-22T04:16:10;100185.00;;;-7.36;100.00
74552;BME280;63025;55.472;38.432;2023-11-22T04:18:39;100189.84;;;-7.44;100.00
74552;BME280;63025;55.472;38.432;2023-11-22T04:21:07;100195.72;;;-7.41;100.00
74552;BME280;63025;55.472;38.432;2023-11-22T04:23:33;100198.16;;;-7.37;100.00
74552;BME280;63025;55.472;38.432;2023-11-22T04:26:00;100193.13;;;-7.41;100.00
74552;BME280;63025;55.472;38.432;2023-11-22T04:28:27;100192.09;;;-7.38;100.00
74552;BME280;63025;55.472;38.432;2023-11-22T04:30:54;100194.97;;;-7.43;100.00
74552;BME280;63025;55.472;38.432;2023-11-22T04:33:20;100200.78;;;-7.37;100.00
74552;BME280;63025;55.472;38.432;2023-11-22T04:35:48;100206.91;;;-7.38;100.00
74552;BME280;63025;55.472;38.432;2023-11-22T04:38:13;100204.47;;;-7.42;100.00
74552;BME280;63025;55.472;38.432;2023-11-22T04:40:39;100202.88;;;-7.44;100.00
74552;BME280;63025;55.472;38.432;2023-11-22T04:43:05;100204.28;;;-7.53;100.00
74552;BME280;63025;55.472;38.432;2023-11-22T04:45:32;100205.03;;;-7.51;100.00
74552;BME280;63025;55.472;38.432;2023-11-22T04:47:58;100206.03;;;-7.53;100.00
74552;BME280;63025;55.472;38.432;2023-11-22T04:50:24;100205.03;;;-7.51;100.00
74552;BME280;63025;55.472;38.432;2023-11-22T04:52:50;100201.75;;;-7.54;100.00
74552;BME280;63025;55.472;38.432;2023-11-22T04:55:16;100213.63;;;-7.49;100.00
74552;BME280;63025;55.472;38.432;2023-11-22T04:57:45;100198.59;;;-7.45;100.00
74552;BME280;63025;55.472;38.432;2023-11-22T05:00:11;100211.38;;;-7.41;100.00
74552;BME280;63025;55.472;38.432;2023-11-22T05:02:38;100211.28;;;-7.39;100.00
74552;BME280;63025;55.472;38.432;2023-11-22T05:05:06;100211.94;;;-7.35;100.00
74552;BME280;63025;55.472;38.432;2023-11-22T05:07:32;100208.88;;;-7.42;100.00
74552;BME280;63025;55.472;38.432;2023-11-22T05:09:58;100203.47;;;-7.39;100.00
74552;BME280;63025;55.472;38.432;2023-11-22T05:12:24;100211.38;;;-7.41;100.00
74552;BME280;63025;55.472;38.432;2023-11-22T05:14:49;100210.63;;;-7.43;100.00
74552;BME280;63025;55.472;38.432;2023-11-22T05:17:15;100214.00;;;-7.41;100.00
74552;BME280;63025;55.472;38.432;2023-11-22T05:19:41;100207.09;;;-7.42;100.00
74552;BME280;63025;55.472;38.432;2023-11-22T05:22:07;100216.94;;;-7.47;100.00
74552;BME280;63025;55.472;38.432;2023-11-22T05:24:33;100219.47;;;-7.45;100.00
74552;BME280;63025;55.472;38.432;2023-11-22T05:27:00;100221.16;;;-7.44;100.00
74552;BME280;63025;55.472;38.432;2023-11-22T05:29:27;100220.13;;;-7.42;100.00
74552;BME280;63025;55.472;38.432;2023-11-22T05:31:53;100225.72;;;-7.33;100.00
74552;BME280;63025;55.472;38.432;2023-11-22T05:34:19;100225.28;;;-7.40;100.00
74552;BME280;63025;55.472;38.432;2023-11-22T05:36:45;100225.53;;;-7.45;100.00
74552;BME280;63025;55.472;38.432;2023-11-22T05:39:10;100232.72;;;-7.34;100.00
74552;BME280;63025;55.472;38.432;2023-11-22T05:41:38;100222.38;;;-7.35;100.00
74552;BME280;63025;55.472;38.432;2023-11-22T05:44:04;100231.03;;;-7.35;100.00
74552;BME280;63025;55.472;38.432;2023-11-22T05:46:30;100231.53;;;-7.28;100.00
74552;BME280;63025;55.472;38.432;2023-11-22T05:48:55;100236.19;;;-7.33;100.00
74552;BME280;63025;55.472;38.432;2023-11-22T05:51:21;100235.06;;;-7.29;100.00
74552;BME280;63025;55.472;38.432;2023-11-22T05:53:47;100238.97;;;-7.22;100.00
74552;BME280;63025;55.472;38.432;2023-11-22T05:56:13;100238.91;;;-7.21;100.00
74552;BME280;63025;55.472;38.432;2023-11-22T05:58:40;100234.59;;;-7.22;100.00
74552;BME280;63025;55.472;38.432;2023-11-22T06:01:09;100240.84;;;-7.24;100.00
74552;BME280;63025;55.472;38.432;2023-11-22T06:03:37;100239.75;;;-7.20;100.00
74552;BME280;63025;55.472;38.432;2023-11-22T06:06:06;100242.25;;;-7.19;100.00
74552;BME280;63025;55.472;38.432;2023-11-22T06:08:33;100238.72;;;-7.18;100.00
74552;BME280;63025;55.472;38.432;2023-11-22T06:10:58;100237.41;;;-7.11;100.00
74552;BME280;63025;55.472;38.432;2023-11-22T06:13:26;100234.88;;;-7.12;100.00
74552;BME280;63025;55.472;38.432;2023-11-22T06:15:52;100235.63;;;-7.24;100.00
74552;BME280;63025;55.472;38.432;2023-11-22T06:18:18;100233.56;;;-7.33;100.00
74552;BME280;63025;55.472;38.432;2023-11-22T06:20:45;100239.91;;;-7.37;100.00
74552;BME280;63025;55.472;38.432;2023-11-22T06:23:13;100239.16;;;-7.39;100.00
74552;BME280;63025;55.472;38.432;2023-11-22T06:25:39;100248.22;;;-7.31;100.00
74552;BME280;63025;55.472;38.432;2023-11-22T06:28:09;100240.66;;;-7.35;100.00
74552;BME280;63025;55.472;38.432;2023-11-22T06:30:35;100230.41;;;-7.38;100.00
74552;BME280;63025;55.472;38.432;2023-11-22T06:33:01;100234.13;;;-7.43;100.00
74552;BME280;63025;55.472;38.432;2023-11-22T06:35:27;100240.09;;;-7.41;100.00
74552;BME280;63025;55.472;38.432;2023-11-22T06:37:53;100252.97;;;-7.37;100.00
74552;BME280;63025;55.472;38.432;2023-11-22T06:40:19;100243.00;;;-7.31;100.00
74552;BME280;63025;55.472;38.432;2023-11-22T06:42:46;100254.38;;;-7.32;100.00
74552;BME280;63025;55.472;38.432;2023-11-22T06:45:12;100253.91;;;-7.10;100.00
74552;BME280;63025;55.472;38.432;2023-11-22T06:47:44;100252.03;;;-6.94;100.00
74552;BME280;63025;55.472;38.432;2023-11-22T06:50:11;100245.44;;;-6.85;100.00
74552;BME280;63025;55.472;38.432;2023-11-22T06:52:38;100255.88;;;-6.85;100.00
74552;BME280;63025;55.472;38.432;2023-11-22T06:55:05;100250.75;;;-7.01;100.00
74552;BME280;63025;55.472;38.432;2023-11-22T06:57:37;100249.63;;;-6.97;100.00
74552;BME280;63025;55.472;38.432;2023-11-22T07:00:04;100254.13;;;-6.99;100.00
74552;BME280;63025;55.472;38.432;2023-11-22T07:02:32;100250.19;;;-7.06;100.00
74552;BME280;63025;55.472;38.432;2023-11-22T07:04:58;100250.38;;;-7.09;100.00
74552;BME280;63025;55.472;38.432;2023-11-22T07:07:25;100260.53;;;-7.05;100.00
74552;BME280;63025;55.472;38.432;2023-11-22T07:09:51;100251.50;;;-6.99;100.00
74552;BME280;63025;55.472;38.432;2023-11-22T07:12:17;100265.19;;;-6.95;100.00
74552;BME280;63025;55.472;38.432;2023-11-22T07:14:45;100264.25;;;-6.94;100.00
74552;BME280;63025;55.472;38.432;2023-11-22T07:17:11;100264.00;;;-6.90;100.00
74552;BME280;63025;55.472;38.432;2023-11-22T07:19:36;100270.91;;;-6.89;100.00
74552;BME280;63025;55.472;38.432;2023-11-22T07:22:04;100269.50;;;-6.80;100.00
74552;BME280;63025;55.472;38.432;2023-11-22T07:24:46;100268.44;;;-6.63;100.00
74552;BME280;63025;55.472;38.432;2023-11-22T07:27:14;100279.84;;;-6.93;100.00
74552;BME280;63025;55.472;38.432;2023-11-22T07:29:41;100280.78;;;-6.94;100.00
74552;BME280;63025;55.472;38.432;2023-11-22T07:32:08;100272.56;;;-7.02;100.00
74552;BME280;63025;55.472;38.432;2023-11-22T07:34:35;100282.19;;;-6.88;100.00
74552;BME280;63025;55.472;38.432;2023-11-22T07:37:01;100288.34;;;-6.75;100.00
74552;BME280;63025;55.472;38.432;2023-11-22T07:39:27;100276.41;;;-6.79;100.00
74552;BME280;63025;55.472;38.432;2023-11-22T07:41:56;100282.75;;;-6.97;100.00
74552;BME280;63025;55.472;38.432;2023-11-22T07:44:22;100280.06;;;-6.96;100.00
74552;BME280;63025;55.472;38.432;2023-11-22T07:46:50;100272.66;;;-6.89;100.00
74552;BME280;63025;55.472;38.432;2023-11-22T07:49:19;100265.75;;;-6.90;100.00
74552;BME280;63025;55.472;38.432;2023-11-22T07:51:47;100272.09;;;-6.94;100.00
74552;BME280;63025;55.472;38.432;2023-11-22T07:54:12;100274.78;;;-5.08;100.00
74552;BME280;63025;55.472;38.432;2023-11-22T07:56:42;100264.66;;;-3.90;100.00
74552;BME280;63025;55.472;38.432;2023-11-22T07:59:12;100269.97;;;-4.03;100.00
74552;BME280;63025;55.472;38.432;2023-11-22T08:01:38;100265.72;;;-3.93;100.00
74552;BME280;63025;55.472;38.432;2023-11-22T08:04:04;100269.06;;;-4.15;100.00
74552;BME280;63025;55.472;38.432;2023-11-22T08:06:33;100263.84;;;-4.64;100.00
74552;BME280;63025;55.472;38.432;2023-11-22T08:09:00;100267.03;;;-4.84;100.00
74552;BME280;63025;55.472;38.432;2023-11-22T08:11:28;100269.34;;;-4.92;100.00
74552;BME280;63025;55.472;38.432;2023-11-22T08:13:54;100280.31;;;-4.74;100.00
74552;BME280;63025;55.472;38.432;2023-11-22T08:16:25;100269.97;;;-4.89;100.00
74552;BME280;63025;55.472;38.432;2023-11-22T08:18:52;100264.19;;;-4.81;100.00
74552;BME280;63025;55.472;38.432;2023-11-22T08:21:18;100272.78;;;-4.79;100.00
74552;BME280;63025;55.472;38.432;2023-11-22T08:23:47;100258.94;;;-4.68;100.00
74552;BME280;63025;55.472;38.432;2023-11-22T08:26:14;100257.44;;;-4.60;100.00
74552;BME280;63025;55.472;38.432;2023-11-22T08:28:41;100255.00;;;-4.37;100.00
74552;BME280;63025;55.472;38.432;2023-11-22T08:31:07;100240.69;;;-4.57;100.00
74552;BME280;63025;55.472;38.432;2023-11-22T08:33:35;100259.84;;;-4.57;100.00
74552;BME280;63025;55.472;38.432;2023-11-22T08:36:01;100248.25;;;-4.78;100.00
74552;BME280;63025;55.472;38.432;2023-11-22T08:38:30;100271.72;;;-4.64;100.00
74552;BME280;63025;55.472;38.432;2023-11-22T08:41:03;100267.09;;;-4.60;100.00
74552;BME280;63025;55.472;38.432;2023-11-22T08:43:29;100258.72;;;-4.65;100.00
74552;BME280;63025;55.472;38.432;2023-11-22T08:45:58;100251.91;;;-4.68;100.00
74552;BME280;63025;55.472;38.432;2023-11-22T08:48:24;100268.16;;;-4.63;100.00
74552;BME280;63025;55.472;38.432;2023-11-22T08:50:50;100258.53;;;-4.88;100.00
74552;BME280;63025;55.472;38.432;2023-11-22T08:53:19;100240.50;;;-5.05;100.00
74552;BME280;63025;55.472;38.432;2023-11-22T08:55:47;100253.09;;;-5.23;100.00
74552;BME280;63025;55.472;38.432;2023-11-22T08:58:13;100251.22;;;-5.21;100.00
74552;BME280;63025;55.472;38.432;2023-11-22T09:00:40;100256.53;;;-4.97;100.00
74552;BME280;63025;55.472;38.432;2023-11-22T09:03:10;100253.72;;;-5.06;100.00
74552;BME280;63025;55.472;38.432;2023-11-22T09:05:39;100259.06;;;-5.08;100.00
74552;BME280;63025;55.472;38.432;2023-11-22T09:08:06;100250.16;;;-4.93;100.00
74552;BME280;63025;55.472;38.432;2023-11-22T09:10:32;100248.06;;;-5.00;100.00
74552;BME280;63025;55.472;38.432;2023-11-22T09:12:58;100237.78;;;-4.91;100.00
74552;BME280;63025;55.472;38.432;2023-11-22T09:15:26;100253.31;;;-5.00;100.00
74552;BME280;63025;55.472;38.432;2023-11-22T09:17:53;100237.38;;;-5.23;100.00
74552;BME280;63025;55.472;38.432;2023-11-22T09:20:20;100236.75;;;-5.26;100.00
74552;BME280;63025;55.472;38.432;2023-11-22T09:22:48;100244.19;;;-5.33;100.00
74552;BME280;63025;55.472;38.432;2023-11-22T09:25:33;100238.41;;;-5.38;100.00
74552;BME280;63025;55.472;38.432;2023-11-22T09:28:01;100244.13;;;-5.58;100.00
74552;BME280;63025;55.472;38.432;2023-11-22T09:30:30;100252.94;;;-5.72;100.00
74552;BME280;63025;55.472;38.432;2023-11-22T09:33:12;100259.94;;;-5.60;100.00
74552;BME280;63025;55.472;38.432;2023-11-22T09:35:43;100257.97;;;-5.56;100.00
74552;BME280;63025;55.472;38.432;2023-11-22T09:38:10;100257.97;;;-5.56;100.00
74552;BME280;63025;55.472;38.432;2023-11-22T09:40:43;100267.06;;;-5.74;100.00
74552;BME280;63025;55.472;38.432;2023-11-22T09:43:09;100273.50;;;-5.80;100.00
74552;BME280;63025;55.472;38.432;2023-11-22T09:45:35;100267.22;;;-5.90;100.00
74552;BME280;63025;55.472;38.432;2023-11-22T09:48:16;100267.44;;;-5.93;100.00
74552;BME280;63025;55.472;38.432;2023-11-22T09:51:04;100270.06;;;-5.80;100.00
74552;BME280;63025;55.472;38.432;2023-11-22T09:53:40;100274.00;;;-5.87;100.00
74552;BME280;63025;55.472;38.432;2023-11-22T09:56:11;100277.53;;;-5.74;100.00
74552;BME280;63025;55.472;38.432;2023-11-22T09:58:41;100275.41;;;-5.82;100.00
74552;BME280;63025;55.472;38.432;2023-11-22T10:01:13;100278.97;;;-5.83;100.00
74552;BME280;63025;55.472;38.432;2023-11-22T10:03:39;100274.28;;;-5.65;100.00
74552;BME280;63025;55.472;38.432;2023-11-22T10:06:06;100272.94;;;-5.58;100.00
74552;BME280;63025;55.472;38.432;2023-11-22T10:08:32;100274.72;;;-5.59;100.00
74552;BME280;63025;55.472;38.432;2023-11-22T10:10:59;100267.78;;;-5.72;100.00
74552;BME280;63025;55.472;38.432;2023-11-22T10:13:26;100268.06;;;-5.89;100.00
74552;BME280;63025;55.472;38.432;2023-11-22T10:15:53;100266.25;;;-6.02;100.00
74552;BME280;63025;55.472;38.432;2023-11-22T10:18:20;100252.03;;;-5.98;100.00
74552;BME280;63025;55.472;38.432;2023-11-22T10:20:47;100257.97;;;-6.08;100.00
74552;BME280;63025;55.472;38.432;2023-11-22T10:23:17;100264.47;;;-6.01;100.00
74552;BME280;63025;55.472;38.432;2023-11-22T10:25:52;100260.31;;;-5.91;100.00
74552;BME280;63025;55.472;38.432;2023-11-22T10:28:19;100260.94;;;-5.87;100.00
74552;BME280;63025;55.472;38.432;2023-11-22T10:30:46;100263.25;;;-5.83;100.00
74552;BME280;63025;55.472;38.432;2023-11-22T10:33:14;100253.09;;;-5.87;100.00
74552;BME280;63025;55.472;38.432;2023-11-22T10:35:47;100273.09;;;-5.86;100.00
74552;BME280;63025;55.472;38.432;2023-11-22T10:38:14;100260.94;;;-5.87;100.00
74552;BME280;63025;55.472;38.432;2023-11-22T10:40:41;100260.94;;;-5.87;100.00
74552;BME280;63025;55.472;38.432;2023-11-22T10:43:14;100266.97;;;-5.73;100.00
74552;BME280;63025;55.472;38.432;2023-11-22T10:45:44;100264.84;;;-5.68;100.00
74552;BME280;63025;55.472;38.432;2023-11-22T10:48:17;100261.31;;;-5.67;100.00
74552;BME280;63025;55.472;38.432;2023-11-22T10:50:46;100261.09;;;-5.64;100.00
74552;BME280;63025;55.472;38.432;2023-11-22T10:53:15;100265.28;;;-5.74;100.00
74552;BME280;63025;55.472;38.432;2023-11-22T10:55:44;100254.84;;;-5.61;100.00
74552;BME280;63025;55.472;38.432;2023-11-22T10:58:13;100249.69;;;-5.63;100.00
74552;BME280;63025;55.472;38.432;2023-11-22T11:00:40;100258.03;;;-5.70;100.00
74552;BME280;63025;55.472;38.432;2023-11-22T11:03:20;100253.31;;;-5.78;100.00
74552;BME280;63025;55.472;38.432;2023-11-22T11:05:54;100258.03;;;-5.70;100.00
74552;BME280;63025;55.472;38.432;2023-11-22T11:08:25;100250.41;;;-5.73;100.00
74552;BME280;63025;55.472;38.432;2023-11-22T11:10:53;100253.13;;;-5.75;100.00
74552;BME280;63025;55.472;38.432;2023-11-22T11:13:24;100247.19;;;-5.64;100.00
74552;BME280;63025;55.472;38.432;2023-11-22T11:15:53;100244.66;;;-5.66;100.00
74552;BME280;63025;55.472;38.432;2023-11-22T11:18:19;100255.31;;;-5.81;100.00
74552;BME280;63025;55.472;38.432;2023-11-22T11:20:57;100247.53;;;-5.96;100.00
74552;BME280;63025;55.472;38.432;2023-11-22T11:23:27;100245.44;;;-6.03;100.00
74552;BME280;63025;55.472;38.432;2023-11-22T11:25:56;100244.19;;;-5.98;100.00
74552;BME280;63025;55.472;38.432;2023-11-22T11:28:23;100237.19;;;-5.84;100.00
74552;BME280;63025;55.472;38.432;2023-11-22T11:30:52;100239.41;;;-5.78;100.00
74552;BME280;63025;55.472;38.432;2023-11-22T11:33:33;100238.06;;;-5.71;100.00
74552;BME280;63025;55.472;38.432;2023-11-22T11:36:01;100218.69;;;-5.81;100.00
74552;BME280;63025;55.472;38.432;2023-11-22T11:38:34;100227.66;;;-5.85;100.00
74552;BME280;63025;55.472;38.432;2023-11-22T11:41:11;100225.69;;;-5.82;100.00
74552;BME280;63025;55.472;38.432;2023-11-22T11:43:42;100232.50;;;-5.92;100.00
74552;BME280;63025;55.472;38.432;2023-11-22T11:46:09;100222.03;;;-5.92;100.00
74552;BME280;63025;55.472;38.432;2023-11-22T11:48:36;100219.06;;;-5.87;100.00
74552;BME280;63025;55.472;38.432;2023-11-22T11:51:02;100228.50;;;-5.98;100.00
74552;BME280;63025;55.472;38.432;2023-11-22T11:53:28;100238.03;;;-5.97;100.00
74552;BME280;63025;55.472;38.432;2023-11-22T11:55:57;100231.72;;;-6.07;100.00
74552;BME280;63025;55.472;38.432;2023-11-22T11:58:24;100238.53;;;-6.04;100.00
74552;BME280;63025;55.472;38.432;2023-11-22T12:00:54;100234.94;;;-6.16;100.00
74552;BME280;63025;55.472;38.432;2023-11-22T12:03:21;100231.03;;;-6.23;100.00
74552;BME280;63025;55.472;38.432;2023-11-22T12:05:48;100235.81;;;-6.30;100.00
74552;BME280;63025;55.472;38.432;2023-11-22T12:08:17;100244.13;;;-6.37;100.00
74552;BME280;63025;55.472;38.432;2023-11-22T12:10:44;100247.28;;;-6.32;100.00
74552;BME280;63025;55.472;38.432;2023-11-22T12:13:22;100251.13;;;-6.38;100.00
74552;BME280;63025;55.472;38.432;2023-11-22T12:15:48;100250.84;;;-6.33;100.00
74552;BME280;63025;55.472;38.432;2023-11-22T12:18:14;100247.78;;;-6.40;100.00
74552;BME280;63025;55.472;38.432;2023-11-22T12:20:40;100252.56;;;-6.46;100.00
74552;BME280;63025;55.472;38.432;2023-11-22T12:23:06;100256.13;;;-6.47;100.00
74552;BME280;63025;55.472;38.432;2023-11-22T12:25:35;100253.59;;;-6.49;100.00
74552;BME280;63025;55.472;38.432;2023-11-22T12:28:02;100262.47;;;-6.51;100.00
74552;BME280;63025;55.472;38.432;2023-11-22T12:30:35;100252.75;;;-6.49;100.00
74552;BME280;63025;55.472;38.432;2023-11-22T12:33:06;100252.75;;;-6.49;100.00